sensor_id;sensor_type;location;lat;lon;timestamp;P1;durP1;ratioP1;P2;durP2;ratioP2
40588;SDS011;26297;49.450;6.640;2023-07-02T01:26:35;3.72;;;1.85;;
40588;SDS011;26297;49.450;6.640;2023-07-02T01:30:01;3.65;;;2.50;;
40588;SDS011;26297;49.450;6.640;2023-07-02T01:33:32;3.17;;;2.67;;
40588;SDS011;26297;49.450;6.640;2023-07-02T01:37:29;7.97;;;3.20;;
40588;SDS011;26297;49.450;6.640;2023-07-02T01:44:39;9.40;;;3.22;;
40588;SDS011;26297;49.450;6.640;2023-07-02T01:47:54;4.85;;;3.10;;
40588;SDS011;26297;49.450;6.640;2023-07-02T01:51:28;6.65;;;3.15;;
40588;SDS011;26297;49.450;6.640;2023-07-02T01:55:05;6.00;;;3.20;;
40588;SDS011;26297;49.450;6.640;2023-07-02T02:09:54;6.95;;;3.20;;
40588;SDS011;26297;49.450;6.640;2023-07-02T02:13:26;8.85;;;3.58;;
40588;SDS011;26297;49.450;6.640;2023-07-02T02:20:25;9.65;;;4.13;;
40588;SDS011;26297;49.450;6.640;2023-07-02T02:23:48;5.45;;;3.13;;
40588;SDS011;26297;49.450;6.640;2023-07-02T02:27:31;7.10;;;4.05;;
40588;SDS011;26297;49.450;6.640;2023-07-02T02:34:33;5.78;;;3.63;;
40588;SDS011;26297;49.450;6.640;2023-07-02T02:40:40;8.07;;;3.53;;
40588;SDS011;26297;49.450;6.640;2023-07-02T02:55:06;5.80;;;3.75;;
40588;SDS011;26297;49.450;6.640;2023-07-02T04:06:02;9.88;;;4.68;;
40588;SDS011;26297;49.450;6.640;2023-07-02T04:14:06;7.03;;;4.40;;
40588;SDS011;26297;49.450;6.640;2023-07-02T04:18:17;10.65;;;4.63;;
40588;SDS011;26297;49.450;6.640;2023-07-02T04:21:20;12.45;;;4.72;;
40588;SDS011;26297;49.450;6.640;2023-07-02T04:24:23;9.25;;;4.53;;
40588;SDS011;26297;49.450;6.640;2023-07-02T04:27:28;7.70;;;4.47;;
40588;SDS011;26297;49.450;6.640;2023-07-02T04:30:31;8.98;;;4.18;;
40588;SDS011;26297;49.450;6.640;2023-07-02T04:33:34;10.25;;;5.15;;
40588;SDS011;26297;49.450;6.640;2023-07-02T04:36:38;9.43;;;5.03;;
40588;SDS011;26297;49.450;6.640;2023-07-02T04:39:44;7.78;;;4.55;;
40588;SDS011;26297;49.450;6.640;2023-07-02T04:42:48;9.32;;;4.78;;
40588;SDS011;26297;49.450;6.640;2023-07-02T04:45:50;9.27;;;5.20;;
40588;SDS011;26297;49.450;6.640;2023-07-02T04:48:53;10.27;;;5.10;;
40588;SDS011;26297;49.450;6.640;2023-07-02T04:51:57;10.57;;;5.03;;
40588;SDS011;26297;49.450;6.640;2023-07-02T04:55:00;11.88;;;5.00;;
40588;SDS011;26297;49.450;6.640;2023-07-02T04:58:05;8.27;;;5.60;;
40588;SDS011;26297;49.450;6.640;2023-07-02T05:01:08;9.80;;;5.20;;
40588;SDS011;26297;49.450;6.640;2023-07-02T05:04:14;10.52;;;5.43;;
40588;SDS011;26297;49.450;6.640;2023-07-02T05:07:17;8.15;;;4.45;;
40588;SDS011;26297;49.450;6.640;2023-07-02T05:10:20;9.25;;;5.15;;
40588;SDS011;26297;49.450;6.640;2023-07-02T05:13:23;8.65;;;4.63;;
40588;SDS011;26297;49.450;6.640;2023-07-02T05:16:27;11.20;;;4.95;;
40588;SDS011;26297;49.450;6.640;2023-07-02T05:19:31;12.10;;;5.82;;
40588;SDS011;26297;49.450;6.640;2023-07-02T05:22:34;9.93;;;5.13;;
40588;SDS011;26297;49.450;6.640;2023-07-02T05:25:43;13.40;;;6.57;;
40588;SDS011;26297;49.450;6.640;2023-07-02T05:28:48;11.73;;;6.38;;
40588;SDS011;26297;49.450;6.640;2023-07-02T05:31:54;11.80;;;6.20;;
40588;SDS011;26297;49.450;6.640;2023-07-02T05:34:59;10.15;;;6.07;;
40588;SDS011;26297;49.450;6.640;2023-07-02T05:38:02;14.85;;;6.68;;
40588;SDS011;26297;49.450;6.640;2023-07-02T05:41:05;18.92;;;7.45;;
40588;SDS011;26297;49.450;6.640;2023-07-02T05:44:08;22.08;;;9.00;;
40588;SDS011;26297;49.450;6.640;2023-07-02T05:47:11;17.20;;;8.25;;
40588;SDS011;26297;49.450;6.640;2023-07-02T05:50:15;21.63;;;9.38;;
40588;SDS011;26297;49.450;6.640;2023-07-02T05:53:19;19.25;;;9.73;;
40588;SDS011;26297;49.450;6.640;2023-07-02T05:56:23;19.58;;;9.70;;
40588;SDS011;26297;49.450;6.640;2023-07-02T05:59:26;21.52;;;10.48;;
40588;SDS011;26297;49.450;6.640;2023-07-02T06:02:29;22.67;;;11.77;;
40588;SDS011;26297;49.450;6.640;2023-07-02T06:05:32;24.48;;;11.55;;
40588;SDS011;26297;49.450;6.640;2023-07-02T06:08:36;26.70;;;10.82;;
40588;SDS011;26297;49.450;6.640;2023-07-02T06:11:42;25.67;;;12.07;;
40588;SDS011;26297;49.450;6.640;2023-07-02T06:14:45;28.95;;;12.50;;
40588;SDS011;26297;49.450;6.640;2023-07-02T06:17:48;25.00;;;12.38;;
40588;SDS011;26297;49.450;6.640;2023-07-02T06:20:51;28.45;;;12.77;;
40588;SDS011;26297;49.450;6.640;2023-07-02T06:23:55;23.23;;;12.57;;
40588;SDS011;26297;49.450;6.640;2023-07-02T06:27:00;29.05;;;12.27;;
40588;SDS011;26297;49.450;6.640;2023-07-02T06:30:04;27.48;;;13.25;;
40588;SDS011;26297;49.450;6.640;2023-07-02T06:33:08;28.42;;;12.52;;
40588;SDS011;26297;49.450;6.640;2023-07-02T06:36:11;26.35;;;12.63;;
40588;SDS011;26297;49.450;6.640;2023-07-02T06:39:16;23.83;;;12.85;;
40588;SDS011;26297;49.450;6.640;2023-07-02T06:42:19;25.55;;;12.38;;
40588;SDS011;26297;49.450;6.640;2023-07-02T06:45:22;26.48;;;12.52;;
40588;SDS011;26297;49.450;6.640;2023-07-02T06:48:25;32.42;;;12.75;;
40588;SDS011;26297;49.450;6.640;2023-07-02T06:51:29;26.75;;;13.32;;
40588;SDS011;26297;49.450;6.640;2023-07-02T06:54:32;29.95;;;12.82;;
40588;SDS011;26297;49.450;6.640;2023-07-02T06:57:34;21.15;;;11.20;;
40588;SDS011;26297;49.450;6.640;2023-07-02T07:00:37;33.70;;;14.40;;
40588;SDS011;26297;49.450;6.640;2023-07-02T07:03:40;25.77;;;12.18;;
40588;SDS011;26297;49.450;6.640;2023-07-02T07:06:44;24.90;;;12.27;;
40588;SDS011;26297;49.450;6.640;2023-07-02T07:09:47;28.88;;;13.50;;
40588;SDS011;26297;49.450;6.640;2023-07-02T07:12:50;23.58;;;12.93;;
40588;SDS011;26297;49.450;6.640;2023-07-02T07:15:53;31.38;;;13.93;;
40588;SDS011;26297;49.450;6.640;2023-07-02T07:18:58;27.35;;;13.77;;
40588;SDS011;26297;49.450;6.640;2023-07-02T07:22:03;23.25;;;13.20;;
40588;SDS011;26297;49.450;6.640;2023-07-02T07:25:07;25.30;;;12.95;;
40588;SDS011;26297;49.450;6.640;2023-07-02T07:28:11;23.77;;;13.57;;
40588;SDS011;26297;49.450;6.640;2023-07-02T07:31:17;23.98;;;12.57;;
40588;SDS011;26297;49.450;6.640;2023-07-02T07:34:20;26.80;;;13.00;;
40588;SDS011;26297;49.450;6.640;2023-07-02T07:37:24;26.00;;;12.38;;
40588;SDS011;26297;49.450;6.640;2023-07-02T07:40:30;26.77;;;13.50;;
40588;SDS011;26297;49.450;6.640;2023-07-02T07:43:33;26.10;;;12.88;;
40588;SDS011;26297;49.450;6.640;2023-07-02T07:46:37;24.90;;;12.90;;
40588;SDS011;26297;49.450;6.640;2023-07-02T07:49:41;28.25;;;15.15;;
40588;SDS011;26297;49.450;6.640;2023-07-02T07:52:44;26.83;;;13.45;;
40588;SDS011;26297;49.450;6.640;2023-07-02T07:55:47;26.90;;;12.73;;
40588;SDS011;26297;49.450;6.640;2023-07-02T07:58:51;25.67;;;14.45;;
40588;SDS011;26297;49.450;6.640;2023-07-02T08:01:54;28.27;;;12.65;;
40588;SDS011;26297;49.450;6.640;2023-07-02T08:04:57;26.60;;;12.73;;
40588;SDS011;26297;49.450;6.640;2023-07-02T08:08:00;25.98;;;12.00;;
40588;SDS011;26297;49.450;6.640;2023-07-02T08:11:02;23.17;;;13.10;;
40588;SDS011;26297;49.450;6.640;2023-07-02T08:14:05;23.27;;;11.63;;
40588;SDS011;26297;49.450;6.640;2023-07-02T08:17:09;21.38;;;11.57;;
40588;SDS011;26297;49.450;6.640;2023-07-02T08:20:12;28.50;;;13.45;;
40588;SDS011;26297;49.450;6.640;2023-07-02T08:23:15;23.27;;;12.65;;
40588;SDS011;26297;49.450;6.640;2023-07-02T08:26:19;26.98;;;13.70;;
40588;SDS011;26297;49.450;6.640;2023-07-02T08:29:22;21.92;;;11.68;;
40588;SDS011;26297;49.450;6.640;2023-07-02T08:32:25;27.75;;;13.23;;
40588;SDS011;26297;49.450;6.640;2023-07-02T08:35:32;26.92;;;11.50;;
40588;SDS011;26297;49.450;6.640;2023-07-02T08:38:35;21.25;;;12.13;;
40588;SDS011;26297;49.450;6.640;2023-07-02T08:41:41;18.77;;;11.23;;
40588;SDS011;26297;49.450;6.640;2023-07-02T08:44:46;25.05;;;11.85;;
40588;SDS011;26297;49.450;6.640;2023-07-02T08:47:50;23.52;;;12.82;;
40588;SDS011;26297;49.450;6.640;2023-07-02T08:50:56;22.02;;;12.75;;
40588;SDS011;26297;49.450;6.640;2023-07-02T08:53:59;20.00;;;11.30;;
40588;SDS011;26297;49.450;6.640;2023-07-02T08:57:03;21.02;;;11.98;;
40588;SDS011;26297;49.450;6.640;2023-07-02T09:00:11;26.88;;;11.88;;
40588;SDS011;26297;49.450;6.640;2023-07-02T09:03:15;23.70;;;11.48;;
40588;SDS011;26297;49.450;6.640;2023-07-02T09:06:18;20.33;;;11.27;;
40588;SDS011;26297;49.450;6.640;2023-07-02T09:09:22;21.65;;;10.50;;
40588;SDS011;26297;49.450;6.640;2023-07-02T09:12:26;22.52;;;11.95;;
40588;SDS011;26297;49.450;6.640;2023-07-02T09:15:37;24.95;;;12.80;;
40588;SDS011;26297;49.450;6.640;2023-07-02T09:18:44;23.75;;;12.77;;
40588;SDS011;26297;49.450;6.640;2023-07-02T09:22:01;27.23;;;11.85;;
40588;SDS011;26297;49.450;6.640;2023-07-02T09:25:05;24.75;;;12.32;;
40588;SDS011;26297;49.450;6.640;2023-07-02T09:28:19;24.90;;;11.57;;
40588;SDS011;26297;49.450;6.640;2023-07-02T09:31:24;19.77;;;11.15;;
40588;SDS011;26297;49.450;6.640;2023-07-02T09:34:28;19.80;;;11.30;;
40588;SDS011;26297;49.450;6.640;2023-07-02T09:37:35;22.30;;;11.82;;
40588;SDS011;26297;49.450;6.640;2023-07-02T09:40:39;24.35;;;9.40;;
40588;SDS011;26297;49.450;6.640;2023-07-02T09:43:48;19.02;;;10.70;;
40588;SDS011;26297;49.450;6.640;2023-07-02T09:50:10;23.90;;;10.60;;
40588;SDS011;26297;49.450;6.640;2023-07-02T09:53:21;16.55;;;9.70;;
40588;SDS011;26297;49.450;6.640;2023-07-02T09:56:24;20.27;;;10.38;;
40588;SDS011;26297;49.450;6.640;2023-07-02T09:59:28;21.63;;;11.85;;
40588;SDS011;26297;49.450;6.640;2023-07-02T10:02:33;18.98;;;10.38;;
40588;SDS011;26297;49.450;6.640;2023-07-02T10:05:36;18.88;;;10.52;;
40588;SDS011;26297;49.450;6.640;2023-07-02T10:08:40;21.48;;;10.60;;
40588;SDS011;26297;49.450;6.640;2023-07-02T10:11:43;21.27;;;11.95;;
40588;SDS011;26297;49.450;6.640;2023-07-02T10:14:47;20.70;;;12.27;;
40588;SDS011;26297;49.450;6.640;2023-07-02T10:17:55;22.35;;;10.13;;
40588;SDS011;26297;49.450;6.640;2023-07-02T10:21:16;19.40;;;9.43;;
40588;SDS011;26297;49.450;6.640;2023-07-02T10:24:20;18.05;;;10.18;;
40588;SDS011;26297;49.450;6.640;2023-07-02T10:27:40;21.60;;;10.88;;
40588;SDS011;26297;49.450;6.640;2023-07-02T10:30:43;16.95;;;10.52;;
40588;SDS011;26297;49.450;6.640;2023-07-02T10:33:48;17.73;;;10.15;;
40588;SDS011;26297;49.450;6.640;2023-07-02T10:36:55;19.02;;;9.93;;
40588;SDS011;26297;49.450;6.640;2023-07-02T10:39:58;17.13;;;9.30;;
40588;SDS011;26297;49.450;6.640;2023-07-02T10:43:02;21.85;;;10.68;;
40588;SDS011;26297;49.450;6.640;2023-07-02T10:46:06;18.35;;;9.07;;
40588;SDS011;26297;49.450;6.640;2023-07-02T10:49:09;18.83;;;8.68;;
40588;SDS011;26297;49.450;6.640;2023-07-02T10:52:14;21.17;;;9.68;;
40588;SDS011;26297;49.450;6.640;2023-07-02T10:55:20;18.23;;;9.20;;
40588;SDS011;26297;49.450;6.640;2023-07-02T10:58:24;22.58;;;10.63;;
40588;SDS011;26297;49.450;6.640;2023-07-02T11:01:33;23.13;;;10.65;;
40588;SDS011;26297;49.450;6.640;2023-07-02T11:05:01;17.40;;;8.32;;
40588;SDS011;26297;49.450;6.640;2023-07-02T11:08:08;19.42;;;9.50;;
40588;SDS011;26297;49.450;6.640;2023-07-02T11:11:12;18.25;;;9.98;;
40588;SDS011;26297;49.450;6.640;2023-07-02T11:14:25;20.27;;;10.40;;
40588;SDS011;26297;49.450;6.640;2023-07-02T11:17:29;16.75;;;9.77;;
40588;SDS011;26297;49.450;6.640;2023-07-02T11:20:41;16.95;;;10.05;;
40588;SDS011;26297;49.450;6.640;2023-07-02T11:24:26;20.75;;;9.38;;
40588;SDS011;26297;49.450;6.640;2023-07-02T11:27:48;19.23;;;9.93;;
40588;SDS011;26297;49.450;6.640;2023-07-02T11:39:01;23.55;;;10.27;;
40588;SDS011;26297;49.450;6.640;2023-07-02T11:46:22;21.00;;;10.38;;
40588;SDS011;26297;49.450;6.640;2023-07-02T11:49:28;16.40;;;9.50;;
40588;SDS011;26297;49.450;6.640;2023-07-02T11:52:34;13.43;;;8.07;;
40588;SDS011;26297;49.450;6.640;2023-07-02T11:55:38;16.48;;;7.70;;
40588;SDS011;26297;49.450;6.640;2023-07-02T11:58:42;22.10;;;10.15;;
40588;SDS011;26297;49.450;6.640;2023-07-02T12:01:45;23.95;;;9.85;;
40588;SDS011;26297;49.450;6.640;2023-07-02T12:04:48;17.50;;;8.88;;
40588;SDS011;26297;49.450;6.640;2023-07-02T12:07:51;21.17;;;9.52;;
40588;SDS011;26297;49.450;6.640;2023-07-02T12:10:55;21.67;;;9.57;;
40588;SDS011;26297;49.450;6.640;2023-07-02T12:13:58;20.15;;;10.52;;
40588;SDS011;26297;49.450;6.640;2023-07-02T12:17:01;22.48;;;9.40;;
40588;SDS011;26297;49.450;6.640;2023-07-02T12:20:12;17.33;;;10.55;;
40588;SDS011;26297;49.450;6.640;2023-07-02T12:23:15;17.33;;;9.48;;
40588;SDS011;26297;49.450;6.640;2023-07-02T12:26:19;19.77;;;10.18;;
40588;SDS011;26297;49.450;6.640;2023-07-02T12:29:24;17.15;;;9.27;;
40588;SDS011;26297;49.450;6.640;2023-07-02T12:32:27;16.85;;;8.82;;
40588;SDS011;26297;49.450;6.640;2023-07-02T12:35:32;18.83;;;9.95;;
40588;SDS011;26297;49.450;6.640;2023-07-02T12:38:36;17.10;;;9.07;;
40588;SDS011;26297;49.450;6.640;2023-07-02T12:41:39;19.17;;;8.43;;
40588;SDS011;26297;49.450;6.640;2023-07-02T12:44:44;20.58;;;10.18;;
40588;SDS011;26297;49.450;6.640;2023-07-02T12:47:55;20.40;;;10.70;;
40588;SDS011;26297;49.450;6.640;2023-07-02T12:51:01;20.00;;;9.45;;
40588;SDS011;26297;49.450;6.640;2023-07-02T12:54:05;15.00;;;8.85;;
40588;SDS011;26297;49.450;6.640;2023-07-02T12:57:08;22.00;;;9.88;;
40588;SDS011;26297;49.450;6.640;2023-07-02T13:00:13;19.25;;;10.02;;
40588;SDS011;26297;49.450;6.640;2023-07-02T13:03:16;18.80;;;8.73;;
40588;SDS011;26297;49.450;6.640;2023-07-02T13:06:20;14.85;;;8.80;;
40588;SDS011;26297;49.450;6.640;2023-07-02T13:09:24;16.52;;;7.70;;
40588;SDS011;26297;49.450;6.640;2023-07-02T13:12:30;19.27;;;8.88;;
40588;SDS011;26297;49.450;6.640;2023-07-02T13:15:36;17.33;;;8.27;;
40588;SDS011;26297;49.450;6.640;2023-07-02T13:18:44;15.98;;;8.18;;
40588;SDS011;26297;49.450;6.640;2023-07-02T13:21:47;17.80;;;9.25;;
40588;SDS011;26297;49.450;6.640;2023-07-02T13:25:01;13.73;;;8.32;;
40588;SDS011;26297;49.450;6.640;2023-07-02T13:28:07;15.10;;;8.20;;
40588;SDS011;26297;49.450;6.640;2023-07-02T13:39:03;19.98;;;10.10;;
40588;SDS011;26297;49.450;6.640;2023-07-02T13:46:39;15.98;;;8.32;;
40588;SDS011;26297;49.450;6.640;2023-07-02T13:49:45;19.60;;;8.77;;
40588;SDS011;26297;49.450;6.640;2023-07-02T13:52:51;17.92;;;8.93;;
40588;SDS011;26297;49.450;6.640;2023-07-02T13:59:26;16.92;;;8.30;;
40588;SDS011;26297;49.450;6.640;2023-07-02T14:02:39;19.08;;;9.55;;
40588;SDS011;26297;49.450;6.640;2023-07-02T14:13:42;13.07;;;6.93;;
40588;SDS011;26297;49.450;6.640;2023-07-02T14:16:53;15.20;;;7.20;;
40588;SDS011;26297;49.450;6.640;2023-07-02T14:19:59;13.82;;;7.53;;
40588;SDS011;26297;49.450;6.640;2023-07-02T14:23:05;16.23;;;7.75;;
40588;SDS011;26297;49.450;6.640;2023-07-02T14:34:57;15.35;;;7.10;;
40588;SDS011;26297;49.450;6.640;2023-07-02T14:38:04;12.77;;;7.18;;
40588;SDS011;26297;49.450;6.640;2023-07-02T14:41:07;16.42;;;7.25;;
40588;SDS011;26297;49.450;6.640;2023-07-02T14:44:11;19.20;;;8.27;;
40588;SDS011;26297;49.450;6.640;2023-07-02T14:47:26;15.55;;;7.80;;
40588;SDS011;26297;49.450;6.640;2023-07-02T14:50:45;15.60;;;7.53;;
40588;SDS011;26297;49.450;6.640;2023-07-02T14:58:17;19.88;;;9.40;;
40588;SDS011;26297;49.450;6.640;2023-07-02T15:01:35;11.27;;;6.50;;
40588;SDS011;26297;49.450;6.640;2023-07-02T15:04:42;14.52;;;7.35;;
40588;SDS011;26297;49.450;6.640;2023-07-02T15:07:51;17.67;;;7.63;;
40588;SDS011;26297;49.450;6.640;2023-07-02T15:11:02;13.85;;;7.50;;
40588;SDS011;26297;49.450;6.640;2023-07-02T15:14:06;12.57;;;6.72;;
40588;SDS011;26297;49.450;6.640;2023-07-02T15:17:09;16.13;;;7.40;;
40588;SDS011;26297;49.450;6.640;2023-07-02T15:20:13;13.73;;;6.85;;
40588;SDS011;26297;49.450;6.640;2023-07-02T15:23:16;13.95;;;7.32;;
40588;SDS011;26297;49.450;6.640;2023-07-02T15:26:19;17.90;;;7.75;;
40588;SDS011;26297;49.450;6.640;2023-07-02T15:29:23;13.98;;;6.55;;
40588;SDS011;26297;49.450;6.640;2023-07-02T15:32:26;13.13;;;6.82;;
40588;SDS011;26297;49.450;6.640;2023-07-02T15:35:35;13.57;;;6.70;;
40588;SDS011;26297;49.450;6.640;2023-07-02T15:38:38;14.55;;;6.80;;
40588;SDS011;26297;49.450;6.640;2023-07-02T15:41:41;13.77;;;6.03;;
40588;SDS011;26297;49.450;6.640;2023-07-02T15:44:55;15.80;;;7.53;;
40588;SDS011;26297;49.450;6.640;2023-07-02T15:48:02;10.80;;;5.85;;
40588;SDS011;26297;49.450;6.640;2023-07-02T15:51:06;15.70;;;5.95;;
40588;SDS011;26297;49.450;6.640;2023-07-02T15:54:11;15.13;;;6.63;;
40588;SDS011;26297;49.450;6.640;2023-07-02T15:57:14;9.93;;;5.93;;
40588;SDS011;26297;49.450;6.640;2023-07-02T16:00:21;14.38;;;6.28;;
40588;SDS011;26297;49.450;6.640;2023-07-02T16:03:25;14.43;;;6.75;;
40588;SDS011;26297;49.450;6.640;2023-07-02T16:06:31;13.23;;;6.72;;
40588;SDS011;26297;49.450;6.640;2023-07-02T16:09:36;11.80;;;6.07;;
40588;SDS011;26297;49.450;6.640;2023-07-02T16:12:40;11.18;;;5.97;;
40588;SDS011;26297;49.450;6.640;2023-07-02T16:15:46;12.00;;;5.82;;
40588;SDS011;26297;49.450;6.640;2023-07-02T16:18:50;12.82;;;6.47;;
40588;SDS011;26297;49.450;6.640;2023-07-02T16:21:53;14.82;;;7.10;;
40588;SDS011;26297;49.450;6.640;2023-07-02T16:24:56;10.80;;;5.45;;
40588;SDS011;26297;49.450;6.640;2023-07-02T16:27:59;9.10;;;5.25;;
40588;SDS011;26297;49.450;6.640;2023-07-02T16:31:03;13.88;;;6.88;;
40588;SDS011;26297;49.450;6.640;2023-07-02T16:34:08;14.15;;;6.57;;
40588;SDS011;26297;49.450;6.640;2023-07-02T16:37:14;11.68;;;5.65;;
40588;SDS011;26297;49.450;6.640;2023-07-02T16:40:18;14.32;;;5.63;;
40588;SDS011;26297;49.450;6.640;2023-07-02T16:43:21;14.93;;;6.65;;
40588;SDS011;26297;49.450;6.640;2023-07-02T16:46:35;14.63;;;6.30;;
40588;SDS011;26297;49.450;6.640;2023-07-02T16:49:41;13.52;;;6.78;;
40588;SDS011;26297;49.450;6.640;2023-07-02T16:56:29;13.70;;;6.40;;
40588;SDS011;26297;49.450;6.640;2023-07-02T16:59:50;14.90;;;6.70;;
40588;SDS011;26297;49.450;6.640;2023-07-02T17:11:17;13.77;;;6.32;;
40588;SDS011;26297;49.450;6.640;2023-07-02T17:14:23;12.45;;;6.55;;
40588;SDS011;26297;49.450;6.640;2023-07-02T17:21:22;17.40;;;6.68;;
40588;SDS011;26297;49.450;6.640;2023-07-02T17:24:30;14.15;;;5.75;;
40588;SDS011;26297;49.450;6.640;2023-07-02T17:27:35;10.10;;;5.18;;
40588;SDS011;26297;49.450;6.640;2023-07-02T17:34:15;10.55;;;5.68;;
40588;SDS011;26297;49.450;6.640;2023-07-02T17:37:21;9.52;;;5.60;;
40588;SDS011;26297;49.450;6.640;2023-07-02T17:40:40;15.10;;;5.63;;
40588;SDS011;26297;49.450;6.640;2023-07-02T17:43:43;15.30;;;6.13;;
40588;SDS011;26297;49.450;6.640;2023-07-02T17:46:55;15.32;;;6.18;;
40588;SDS011;26297;49.450;6.640;2023-07-02T17:50:06;15.50;;;5.30;;
40588;SDS011;26297;49.450;6.640;2023-07-02T17:53:19;10.90;;;5.05;;
40588;SDS011;26297;49.450;6.640;2023-07-02T17:56:39;12.77;;;5.65;;
40588;SDS011;26297;49.450;6.640;2023-07-02T17:59:43;15.38;;;5.25;;
40588;SDS011;26297;49.450;6.640;2023-07-02T18:02:48;8.55;;;4.78;;
40588;SDS011;26297;49.450;6.640;2023-07-02T18:05:51;11.13;;;4.93;;
40588;SDS011;26297;49.450;6.640;2023-07-02T18:08:54;10.77;;;5.50;;
40588;SDS011;26297;49.450;6.640;2023-07-02T18:12:00;11.45;;;5.22;;
40588;SDS011;26297;49.450;6.640;2023-07-02T18:15:04;8.10;;;5.10;;
40588;SDS011;26297;49.450;6.640;2023-07-02T18:18:11;10.18;;;5.50;;
40588;SDS011;26297;49.450;6.640;2023-07-02T18:21:14;10.32;;;4.38;;
40588;SDS011;26297;49.450;6.640;2023-07-02T18:24:18;9.43;;;4.88;;
40588;SDS011;26297;49.450;6.640;2023-07-02T18:35:13;11.57;;;5.38;;
40588;SDS011;26297;49.450;6.640;2023-07-02T18:38:30;10.40;;;4.70;;
40588;SDS011;26297;49.450;6.640;2023-07-02T18:42:06;11.68;;;6.10;;
40588;SDS011;26297;49.450;6.640;2023-07-02T18:45:23;17.10;;;6.13;;
40588;SDS011;26297;49.450;6.640;2023-07-02T18:48:29;9.18;;;4.65;;
40588;SDS011;26297;49.450;6.640;2023-07-02T18:51:42;10.23;;;5.10;;
40588;SDS011;26297;49.450;6.640;2023-07-02T18:58:33;9.65;;;5.10;;
40588;SDS011;26297;49.450;6.640;2023-07-02T19:01:40;8.60;;;4.80;;
40588;SDS011;26297;49.450;6.640;2023-07-02T19:04:53;10.48;;;4.60;;
40588;SDS011;26297;49.450;6.640;2023-07-02T19:07:56;10.20;;;4.78;;
40588;SDS011;26297;49.450;6.640;2023-07-02T19:11:00;12.77;;;5.55;;
40588;SDS011;26297;49.450;6.640;2023-07-02T19:14:04;9.70;;;4.53;;
40588;SDS011;26297;49.450;6.640;2023-07-02T19:17:09;11.00;;;5.05;;
40588;SDS011;26297;49.450;6.640;2023-07-02T19:20:13;11.68;;;4.93;;
40588;SDS011;26297;49.450;6.640;2023-07-02T19:23:18;10.45;;;4.95;;
40588;SDS011;26297;49.450;6.640;2023-07-02T19:26:22;9.93;;;4.68;;
40588;SDS011;26297;49.450;6.640;2023-07-02T19:29:25;9.05;;;4.53;;
40588;SDS011;26297;49.450;6.640;2023-07-02T19:32:28;11.77;;;4.97;;
40588;SDS011;26297;49.450;6.640;2023-07-02T19:35:36;14.30;;;5.68;;
40588;SDS011;26297;49.450;6.640;2023-07-02T19:38:41;11.60;;;5.65;;
40588;SDS011;26297;49.450;6.640;2023-07-02T19:41:44;12.75;;;5.60;;
40588;SDS011;26297;49.450;6.640;2023-07-02T19:44:54;12.20;;;5.20;;
40588;SDS011;26297;49.450;6.640;2023-07-02T19:47:59;8.98;;;4.90;;
40588;SDS011;26297;49.450;6.640;2023-07-02T19:51:03;10.48;;;4.78;;
40588;SDS011;26297;49.450;6.640;2023-07-02T19:54:07;10.45;;;5.13;;
40588;SDS011;26297;49.450;6.640;2023-07-02T19:57:12;13.40;;;5.18;;
40588;SDS011;26297;49.450;6.640;2023-07-02T20:07:27;8.05;;;4.53;;
40588;SDS011;26297;49.450;6.640;2023-07-02T20:11:10;9.18;;;4.53;;
40588;SDS011;26297;49.450;6.640;2023-07-02T20:15:10;10.18;;;4.93;;
40588;SDS011;26297;49.450;6.640;2023-07-02T20:18:39;9.27;;;5.32;;
40588;SDS011;26297;49.450;6.640;2023-07-02T20:26:35;7.90;;;4.60;;
40588;SDS011;26297;49.450;6.640;2023-07-02T20:38:21;11.65;;;4.38;;
40588;SDS011;26297;49.450;6.640;2023-07-02T20:41:47;9.07;;;4.97;;
40588;SDS011;26297;49.450;6.640;2023-07-02T20:45:03;7.63;;;4.47;;
40588;SDS011;26297;49.450;6.640;2023-07-02T20:48:36;13.18;;;5.22;;
40588;SDS011;26297;49.450;6.640;2023-07-02T20:51:52;11.65;;;4.65;;
40588;SDS011;26297;49.450;6.640;2023-07-02T20:59:28;11.18;;;5.05;;
40588;SDS011;26297;49.450;6.640;2023-07-02T21:02:51;12.25;;;5.60;;
40588;SDS011;26297;49.450;6.640;2023-07-02T21:06:29;11.60;;;6.50;;
40588;SDS011;26297;49.450;6.640;2023-07-02T22:09:58;12.30;;;5.47;;
40588;SDS011;26297;49.450;6.640;2023-07-02T22:13:31;9.15;;;4.68;;
40588;SDS011;26297;49.450;6.640;2023-07-02T22:16:52;9.52;;;4.95;;
40588;SDS011;26297;49.450;6.640;2023-07-02T22:20:21;8.23;;;5.38;;
40588;SDS011;26297;49.450;6.640;2023-07-02T22:24:16;10.35;;;5.65;;
40588;SDS011;26297;49.450;6.640;2023-07-02T22:31:26;8.23;;;5.05;;
40588;SDS011;26297;49.450;6.640;2023-07-02T22:35:00;9.93;;;5.55;;
40588;SDS011;26297;49.450;6.640;2023-07-02T22:50:37;9.13;;;5.20;;
40588;SDS011;26297;49.450;6.640;2023-07-02T22:54:18;10.13;;;5.72;;
40588;SDS011;26297;49.450;6.640;2023-07-02T22:57:52;9.27;;;5.38;;
40588;SDS011;26297;49.450;6.640;2023-07-02T23:01:15;10.15;;;5.50;;
40588;SDS011;26297;49.450;6.640;2023-07-02T23:05:00;10.80;;;4.95;;
40588;SDS011;26297;49.450;6.640;2023-07-02T23:19:45;10.55;;;5.05;;
40588;SDS011;26297;49.450;6.640;2023-07-02T23:27:11;10.98;;;5.03;;
40588;SDS011;26297;49.450;6.640;2023-07-02T23:30:46;10.18;;;5.15;;
40588;SDS011;26297;49.450;6.640;2023-07-02T23:34:36;8.38;;;4.50;;
40588;SDS011;26297;49.450;6.640;2023-07-02T23:37:49;11.57;;;5.22;;
40588;SDS011;26297;49.450;6.640;2023-07-02T23:44:55;9.43;;;5.50;;
40588;SDS011;26297;49.450;6.640;2023-07-02T23:48:14;10.63;;;5.47;;
40588;SDS011;26297;49.450;6.640;2023-07-02T23:52:04;11.65;;;4.78;;
40588;SDS011;26297;49.450;6.640;2023-07-02T23:55:58;10.35;;;5.70;;
